createdAt,value
2022-08-26T00:00:33.558Z,1005.53
2022-08-26T00:01:33.537Z,1005.56
2022-08-26T00:02:33.577Z,1005.53
2022-08-26T00:03:33.504Z,1005.57
2022-08-26T00:04:33.505Z,1005.54
2022-08-26T00:05:32.471Z,1005.55
2022-08-26T00:06:33.494Z,1005.58
2022-08-26T00:07:33.478Z,1005.58
2022-08-26T00:08:33.452Z,1005.61
2022-08-26T00:09:33.435Z,1005.58
2022-08-26T00:10:33.431Z,1005.62
2022-08-26T00:11:33.559Z,1005.62
2022-08-26T00:12:37.440Z,1005.64
2022-08-26T00:13:33.373Z,1005.63
2022-08-26T00:14:33.358Z,1005.61
2022-08-26T00:15:33.360Z,1005.62
2022-08-26T00:16:33.401Z,1005.62
2022-08-26T00:17:33.343Z,1005.62
2022-08-26T00:18:33.303Z,1005.60
2022-08-26T00:19:33.301Z,1005.58
2022-08-26T00:20:33.264Z,1005.59
2022-08-26T00:21:33.262Z,1005.58
2022-08-26T00:22:33.273Z,1005.57
2022-08-26T00:23:33.296Z,1005.61
2022-08-26T00:24:33.223Z,1005.63
2022-08-26T00:25:33.214Z,1005.61
2022-08-26T00:26:33.202Z,1005.62
2022-08-26T00:27:33.221Z,1005.60
2022-08-26T00:28:33.184Z,1005.63
2022-08-26T00:29:35.487Z,1005.67
2022-08-26T00:30:33.138Z,1005.63
2022-08-26T00:31:33.185Z,1005.66
2022-08-26T00:32:33.116Z,1005.66
2022-08-26T00:33:33.133Z,1005.67
2022-08-26T00:34:33.144Z,1005.66
2022-08-26T00:35:33.622Z,1005.68
2022-08-26T00:36:33.088Z,1005.69
2022-08-26T00:37:33.064Z,1005.66
2022-08-26T00:38:33.076Z,1005.64
2022-08-26T00:39:33.081Z,1005.67
2022-08-26T00:40:33.037Z,1005.66
2022-08-26T00:41:33.003Z,1005.63
2022-08-26T00:42:32.993Z,1005.60
2022-08-26T00:43:32.985Z,1005.63
2022-08-26T00:44:32.974Z,1005.66
2022-08-26T00:45:32.984Z,1005.65
2022-08-26T00:46:32.920Z,1005.63
2022-08-26T00:47:32.982Z,1005.61
2022-08-26T00:48:32.937Z,1005.62
2022-08-26T00:49:32.933Z,1005.64
2022-08-26T00:50:32.877Z,1005.66
2022-08-26T00:51:32.876Z,1005.64
2022-08-26T00:52:32.851Z,1005.65
2022-08-26T00:53:33.657Z,1005.63
2022-08-26T00:54:32.845Z,1005.62
2022-08-26T00:55:34.633Z,1005.62
2022-08-26T00:56:32.811Z,1005.63
2022-08-26T00:57:32.799Z,1005.64
2022-08-26T00:58:32.799Z,1005.66
2022-08-26T00:59:33.175Z,1005.62
2022-08-26T01:00:32.800Z,1005.65
2022-08-26T01:01:32.786Z,1005.65
2022-08-26T01:02:32.746Z,1005.64
2022-08-26T01:03:33.653Z,1005.64
2022-08-26T01:04:32.703Z,1005.67
2022-08-26T01:05:32.685Z,1005.67
2022-08-26T01:06:32.681Z,1005.69
2022-08-26T01:07:32.678Z,1005.72
2022-08-26T02:09:52.626Z,1005.90
2022-08-26T02:10:54.831Z,1005.91
2022-08-26T02:11:51.946Z,1005.91
2022-08-26T02:12:51.948Z,1005.93
2022-08-26T02:13:51.953Z,1005.90
2022-08-26T02:14:51.923Z,1005.93
2022-08-26T02:15:51.903Z,1005.87
2022-08-26T02:16:51.909Z,1005.88
2022-08-26T02:17:52.719Z,1005.87
2022-08-26T02:18:53.295Z,1005.89
2022-08-26T02:19:51.848Z,1005.90
2022-08-26T02:20:51.867Z,1005.91
2022-08-26T02:21:52.019Z,1005.91
2022-08-26T02:22:51.815Z,1005.90
2022-08-26T02:23:51.773Z,1005.97
2022-08-26T02:24:51.768Z,1005.95
2022-08-26T02:25:51.757Z,1005.97
2022-08-26T02:26:51.757Z,1006.01
2022-08-26T02:27:51.768Z,1006.02
2022-08-26T02:28:51.716Z,1006.03
2022-08-26T02:29:51.727Z,1006.01
2022-08-26T02:30:51.711Z,1005.98
2022-08-26T02:31:51.773Z,1006.04
2022-08-26T02:32:51.803Z,1005.99
2022-08-26T02:33:51.650Z,1006.04
2022-08-26T02:34:51.636Z,1006.03
2022-08-26T02:35:51.633Z,1006.03
2022-08-26T02:36:51.610Z,1006.04
2022-08-26T02:37:51.680Z,1006.04
2022-08-26T02:38:52.087Z,1006.02
2022-08-26T02:39:51.609Z,1006.02
2022-08-26T02:40:51.546Z,1005.98
2022-08-26T02:41:51.595Z,1005.99
2022-08-26T02:42:52.905Z,1006.01
2022-08-26T02:43:51.510Z,1005.99
2022-08-26T02:44:51.493Z,1006.01
2022-08-26T02:45:51.493Z,1005.99
2022-08-26T02:46:51.532Z,1005.99
2022-08-26T02:47:51.505Z,1005.98
2022-08-26T02:48:51.431Z,1006.01
2022-08-26T02:49:51.414Z,1006.02
2022-08-26T02:50:51.409Z,1006.07
2022-08-26T02:51:51.408Z,1006.07
2022-08-26T02:52:51.385Z,1006.10
2022-08-26T02:53:51.401Z,1006.08
2022-08-26T02:54:51.347Z,1006.06
2022-08-26T02:55:51.330Z,1006.08
2022-08-26T02:56:51.329Z,1006.08
2022-08-26T02:57:51.323Z,1006.19
2022-08-26T02:58:51.298Z,1006.13
2022-08-26T02:59:51.278Z,1006.15
2022-08-26T03:00:53.400Z,1006.13
2022-08-26T03:01:51.287Z,1006.09
2022-08-26T03:02:51.282Z,1006.05
2022-08-26T03:03:51.277Z,1006.09
2022-08-26T03:04:57.523Z,1006.08
2022-08-26T03:05:51.233Z,1006.10
2022-08-26T03:06:52.656Z,1006.10
2022-08-26T03:07:51.233Z,1006.12
2022-08-26T03:08:51.160Z,1006.15
2022-08-26T03:09:51.151Z,1006.13
2022-08-26T03:10:51.134Z,1006.07
2022-08-26T03:11:51.165Z,1006.07
2022-08-26T03:12:52.238Z,1006.04
2022-08-26T03:13:51.090Z,1006.02
2022-08-26T03:14:51.092Z,1006.01
2022-08-26T03:15:51.133Z,1006.07
2022-08-26T03:16:51.074Z,1006.12
2022-08-26T03:17:51.050Z,1006.11
2022-08-26T03:18:52.224Z,1006.11
2022-08-26T03:19:54.708Z,1006.06
2022-08-26T03:20:51.013Z,1006.04
2022-08-26T03:21:50.996Z,1006.04
2022-08-26T03:22:50.988Z,1006.07
2022-08-26T03:23:50.944Z,1006.10
2022-08-26T03:24:50.945Z,1006.09
2022-08-26T03:25:50.949Z,1006.05
2022-08-26T03:26:52.752Z,1006.09
2022-08-26T03:27:50.904Z,1006.11
2022-08-26T03:28:50.900Z,1006.13
2022-08-26T03:29:50.875Z,1006.03
2022-08-26T03:30:50.878Z,1006.03
2022-08-26T03:31:50.941Z,1006.04
2022-08-26T03:32:50.846Z,1006.06
2022-08-26T03:33:50.823Z,1006.01
2022-08-26T03:34:50.815Z,1006.05
2022-08-26T03:35:50.928Z,1006.03
2022-08-26T03:36:50.813Z,1006.05
2022-08-26T03:37:50.842Z,1006.07
2022-08-26T03:38:50.781Z,1006.09
2022-08-26T03:39:50.749Z,1006.08
2022-08-26T03:40:50.725Z,1006.12
2022-08-26T03:41:50.705Z,1006.07
2022-08-26T03:42:50.709Z,1006.08
2022-08-26T03:43:50.730Z,1006.06
2022-08-26T03:44:50.666Z,1006.06
2022-08-26T03:45:50.816Z,1006.10
2022-08-26T03:46:50.712Z,1006.11
2022-08-26T03:47:50.688Z,1006.10
2022-08-26T03:48:50.679Z,1006.10
2022-08-26T03:49:50.607Z,1006.13
2022-08-26T03:50:50.592Z,1006.15
2022-08-26T03:51:50.648Z,1006.16
2022-08-26T03:52:50.569Z,1006.25
2022-08-26T03:53:50.534Z,1006.18
2022-08-26T03:54:50.550Z,1006.20
2022-08-26T03:55:52.032Z,1006.16
2022-08-26T03:56:50.509Z,1006.22
2022-08-26T03:57:50.501Z,1006.22
2022-08-26T03:58:50.487Z,1006.20
2022-08-26T03:59:50.461Z,1006.16
2022-08-26T04:00:55.442Z,1006.16
2022-08-26T04:01:50.496Z,1006.14
2022-08-26T04:02:50.533Z,1006.16
2022-08-26T04:03:50.406Z,1006.15
2022-08-26T04:04:50.393Z,1006.17
2022-08-26T04:05:50.387Z,1006.19
2022-08-26T04:06:50.387Z,1006.24
2022-08-26T04:07:50.495Z,1006.24
2022-08-26T04:08:50.341Z,1006.19
2022-08-26T04:09:50.330Z,1006.19
2022-08-26T04:10:50.317Z,1006.20
2022-08-26T04:11:50.900Z,1006.18
2022-08-26T04:12:50.291Z,1006.20
2022-08-26T04:13:50.292Z,1006.18
2022-08-26T04:14:50.284Z,1006.18
2022-08-26T04:15:50.297Z,1006.21
2022-08-26T04:16:50.247Z,1006.21
2022-08-26T04:17:50.238Z,1006.23
2022-08-26T04:18:50.205Z,1006.22
2022-08-26T04:19:50.196Z,1006.22
2022-08-26T04:20:50.172Z,1006.25
2022-08-26T04:21:50.234Z,1006.26
2022-08-26T04:22:50.157Z,1006.28
2022-08-26T04:23:50.179Z,1006.26
2022-08-26T04:24:50.128Z,1006.23
2022-08-26T04:25:50.139Z,1006.21
2022-08-26T04:26:50.114Z,1006.20
2022-08-26T04:27:50.089Z,1006.18
2022-08-26T04:28:50.082Z,1006.18
2022-08-26T04:29:53.574Z,1006.25
2022-08-26T04:30:50.070Z,1006.22
2022-08-26T04:31:50.057Z,1006.21
2022-08-26T04:32:50.024Z,1006.18
2022-08-26T04:33:50.039Z,1006.20
2022-08-26T04:34:49.996Z,1006.20
2022-08-26T04:35:50.012Z,1006.22
2022-08-26T04:36:49.991Z,1006.25
2022-08-26T04:37:50.030Z,1006.26
2022-08-26T04:38:49.933Z,1006.26
2022-08-26T04:39:50.034Z,1006.30
2022-08-26T04:40:49.924Z,1006.33
2022-08-26T04:41:49.944Z,1006.27
2022-08-26T04:42:49.875Z,1006.29
2022-08-26T04:43:49.891Z,1006.33
2022-08-26T04:44:49.908Z,1006.39
2022-08-26T04:45:49.934Z,1006.40
2022-08-26T04:46:49.950Z,1006.41
2022-08-26T04:47:49.846Z,1006.37
2022-08-26T04:48:49.807Z,1006.37
2022-08-26T04:49:49.800Z,1006.36
2022-08-26T04:50:49.787Z,1006.42
2022-08-26T04:51:49.794Z,1006.39
2022-08-26T04:52:49.770Z,1006.40
2022-08-26T04:53:49.737Z,1006.42
2022-08-26T04:54:49.731Z,1006.43
2022-08-26T04:55:51.567Z,1006.45
2022-08-26T04:56:49.732Z,1006.42
2022-08-26T04:57:49.684Z,1006.43
2022-08-26T04:58:49.675Z,1006.45
2022-08-26T04:59:49.661Z,1006.43
2022-08-26T05:00:49.674Z,1006.49
2022-08-26T05:01:49.765Z,1006.51
2022-08-26T05:02:49.620Z,1006.51
2022-08-26T05:03:49.690Z,1006.58
2022-08-26T05:04:49.605Z,1006.57
2022-08-26T05:05:49.580Z,1006.62
2022-08-26T05:06:52.155Z,1006.61
2022-08-26T05:07:49.936Z,1006.58
2022-08-26T05:08:49.660Z,1006.64
2022-08-26T05:09:49.530Z,1006.55
2022-08-26T05:10:49.511Z,1006.59
2022-08-26T05:11:52.120Z,1006.59
2022-08-26T05:12:49.480Z,1006.61
2022-08-26T05:13:49.466Z,1006.63
2022-08-26T05:14:49.449Z,1006.62
2022-08-26T05:15:49.461Z,1006.63
2022-08-26T05:16:49.470Z,1006.64
2022-08-26T05:17:49.403Z,1006.66
2022-08-26T05:18:49.393Z,1006.68
2022-08-26T05:19:49.403Z,1006.68
2022-08-26T05:20:49.401Z,1006.67
2022-08-26T05:21:49.393Z,1006.66
2022-08-26T05:22:49.376Z,1006.64
2022-08-26T05:23:49.507Z,1006.65
2022-08-26T05:24:49.339Z,1006.70
2022-08-26T05:25:49.310Z,1006.69
2022-08-26T05:26:49.331Z,1006.68
2022-08-26T05:27:49.287Z,1006.68
2022-08-26T05:28:49.269Z,1006.66
2022-08-26T05:29:54.555Z,1006.70
2022-08-26T05:31:10.414Z,1006.73
2022-08-26T05:32:25.865Z,1006.77
2022-08-26T05:32:52.520Z,1006.76
2022-08-26T05:34:12.434Z,1006.77
2022-08-26T05:34:49.178Z,1006.80
2022-08-26T05:35:49.182Z,1006.80
2022-08-26T05:36:49.166Z,1006.80
2022-08-26T05:39:11.809Z,1006.86
2022-08-26T05:40:12.831Z,1006.87
2022-08-26T05:41:12.816Z,1006.90
2022-08-26T05:42:12.790Z,1006.92
2022-08-26T05:43:12.782Z,1006.87
2022-08-26T05:44:12.985Z,1006.96
2022-08-26T05:45:12.721Z,1006.97
2022-08-26T05:46:12.762Z,1007.04
2022-08-26T05:47:12.727Z,1007.01
2022-08-26T05:48:12.690Z,1007.01
2022-08-26T05:49:13.066Z,1007.02
2022-08-26T05:50:12.677Z,1007.03
2022-08-26T05:53:21.247Z,1007.01
2022-08-26T05:54:22.572Z,1007.03
2022-08-26T05:55:22.194Z,1007.00
2022-08-26T05:56:22.287Z,1007.04
2022-08-26T05:57:23.065Z,1007.05
2022-08-26T05:58:22.159Z,1007.03
2022-08-26T05:59:24.122Z,1007.05
2022-08-26T06:00:22.148Z,1007.03
2022-08-26T06:01:22.210Z,1007.00
2022-08-26T06:02:22.161Z,1006.92
2022-08-26T06:03:22.106Z,1006.92
2022-08-26T06:04:22.075Z,1006.94
2022-08-26T06:05:22.106Z,1006.97
2022-08-26T06:06:27.912Z,1006.95
2022-08-26T06:07:22.040Z,1007.01
2022-08-26T06:08:22.135Z,1007.02
2022-08-26T06:09:22.006Z,1007.03
2022-08-26T06:10:32.004Z,1007.05
2022-08-26T06:11:21.990Z,1007.07
2022-08-26T06:12:22.008Z,1007.05
2022-08-26T06:13:21.963Z,1007.05
2022-08-26T06:14:21.951Z,1007.06
2022-08-26T06:15:21.940Z,1007.09
2022-08-26T06:16:21.964Z,1007.05
2022-08-26T06:17:21.931Z,1007.06
2022-08-26T06:18:21.942Z,1007.07
2022-08-26T06:19:22.077Z,1007.09
2022-08-26T06:20:24.093Z,1007.09
2022-08-26T06:21:21.872Z,1007.13
2022-08-26T06:22:22.507Z,1007.10
2022-08-26T06:23:21.820Z,1007.12
2022-08-26T06:24:21.831Z,1007.16
2022-08-26T06:25:21.831Z,1007.16
2022-08-26T06:26:21.804Z,1007.18
2022-08-26T06:27:21.806Z,1007.14
2022-08-26T06:28:21.765Z,1007.15
2022-08-26T06:29:24.481Z,1007.14
2022-08-26T06:30:21.737Z,1007.12
2022-08-26T06:31:21.831Z,1007.12
2022-08-26T06:32:21.706Z,1007.15
2022-08-26T06:33:21.711Z,1007.18
2022-08-26T06:34:21.677Z,1007.12
2022-08-26T06:35:21.670Z,1007.14
2022-08-26T06:36:21.665Z,1007.16
2022-08-26T06:37:23.344Z,1007.16
2022-08-26T06:38:21.715Z,1007.17
2022-08-26T06:39:21.613Z,1007.17
2022-08-26T06:40:21.694Z,1007.21
2022-08-26T06:41:21.646Z,1007.23
2022-08-26T06:42:21.641Z,1007.20
2022-08-26T06:43:21.613Z,1007.22
2022-08-26T06:44:21.558Z,1007.20
2022-08-26T06:45:21.553Z,1007.20
2022-08-26T06:46:21.748Z,1007.22
2022-08-26T06:47:21.546Z,1007.21
2022-08-26T06:48:21.610Z,1007.20
2022-08-26T06:49:26.745Z,1007.21
2022-08-26T06:50:21.552Z,1007.23
2022-08-26T06:51:22.305Z,1007.24
2022-08-26T06:52:24.365Z,1007.23
2022-08-26T06:53:21.485Z,1007.24
2022-08-26T06:54:21.434Z,1007.27
2022-08-26T06:55:21.422Z,1007.26
2022-08-26T06:56:21.401Z,1007.31
2022-08-26T06:57:21.434Z,1007.29
2022-08-26T06:58:21.411Z,1007.27
2022-08-26T06:59:21.465Z,1007.26
2022-08-26T07:00:21.374Z,1007.24
2022-08-26T07:01:21.407Z,1007.22
2022-08-26T07:02:21.438Z,1007.29
2022-08-26T07:03:21.385Z,1007.29
2022-08-26T07:04:22.290Z,1007.28
2022-08-26T07:05:21.409Z,1007.29
2022-08-26T07:06:21.298Z,1007.29
2022-08-26T07:07:21.936Z,1007.29
2022-08-26T07:08:21.355Z,1007.26
2022-08-26T07:09:21.306Z,1007.25
2022-08-26T07:10:21.257Z,1007.26
2022-08-26T07:11:21.510Z,1007.29
2022-08-26T07:12:22.016Z,1007.24
2022-08-26T07:13:30.678Z,1007.30
2022-08-26T07:14:21.910Z,1007.31
2022-08-26T07:15:25.800Z,1007.33
2022-08-26T07:16:21.235Z,1007.33
2022-08-26T07:17:21.222Z,1007.33
2022-08-26T07:18:21.731Z,1007.34
2022-08-26T07:19:31.207Z,1007.37
2022-08-26T07:20:21.268Z,1007.44
2022-08-26T07:21:21.128Z,1007.38
2022-08-26T07:22:21.103Z,1007.40
2022-08-26T07:23:21.084Z,1007.41
2022-08-26T07:24:21.054Z,1007.44
2022-08-26T07:25:21.021Z,1007.45
2022-08-26T07:26:21.125Z,1007.45
2022-08-26T07:27:21.066Z,1007.48
2022-08-26T07:28:21.048Z,1007.35
2022-08-26T07:29:21.335Z,1007.43
2022-08-26T07:30:20.963Z,1007.44
2022-08-26T07:31:21.015Z,1007.44
2022-08-26T07:32:20.959Z,1007.48
2022-08-26T07:33:20.974Z,1007.45
2022-08-26T07:34:20.941Z,1007.45
2022-08-26T07:35:20.885Z,1007.46
2022-08-26T07:36:20.911Z,1007.47
2022-08-26T07:37:20.890Z,1007.47
2022-08-26T07:38:20.938Z,1007.51
2022-08-26T07:39:20.835Z,1007.52
2022-08-26T07:40:20.936Z,1007.55
2022-08-26T07:41:20.856Z,1007.56
2022-08-26T07:42:20.926Z,1007.58
2022-08-26T07:43:23.449Z,1007.58
2022-08-26T07:44:20.921Z,1007.64
2022-08-26T07:45:20.744Z,1007.62
2022-08-26T07:46:27.170Z,1007.64
2022-08-26T07:47:25.773Z,1007.57
2022-08-26T07:48:21.518Z,1007.62
2022-08-26T07:49:20.844Z,1007.63
2022-08-26T07:50:20.755Z,1007.67
2022-08-26T07:51:20.769Z,1007.71
2022-08-26T07:52:25.995Z,1007.64
2022-08-26T07:53:20.706Z,1007.65
2022-08-26T07:54:20.631Z,1007.69
2022-08-26T07:55:20.675Z,1007.66
2022-08-26T07:56:20.625Z,1007.69
2022-08-26T07:57:20.735Z,1007.67
2022-08-26T07:58:20.646Z,1007.67
2022-08-26T07:59:20.650Z,1007.71
2022-08-26T08:00:20.639Z,1007.68
2022-08-26T08:01:20.654Z,1007.70
2022-08-26T08:02:21.847Z,1007.71
2022-08-26T08:03:20.561Z,1007.72
2022-08-26T08:04:26.096Z,1007.73
2022-08-26T08:05:20.515Z,1007.74
2022-08-26T08:06:20.490Z,1007.73
2022-08-26T08:07:20.501Z,1007.73
2022-08-26T08:08:27.861Z,1007.71
2022-08-26T08:09:20.445Z,1007.77
2022-08-26T08:10:20.858Z,1007.76
2022-08-26T08:11:20.430Z,1007.79
2022-08-26T08:12:20.875Z,1007.72
2022-08-26T08:13:20.402Z,1007.73
2022-08-26T08:14:20.473Z,1007.73
2022-08-26T08:15:20.418Z,1007.69
2022-08-26T08:16:20.384Z,1007.76
2022-08-26T08:17:20.343Z,1007.72
2022-08-26T08:18:20.760Z,1007.75
2022-08-26T08:19:20.315Z,1007.80
2022-08-26T08:20:20.343Z,1007.81
2022-08-26T08:21:22.035Z,1007.81
2022-08-26T08:22:20.296Z,1007.84
2022-08-26T08:23:20.267Z,1007.83
2022-08-26T08:24:20.245Z,1007.83
2022-08-26T08:25:20.281Z,1007.80
2022-08-26T08:26:20.217Z,1007.84
2022-08-26T08:27:23.476Z,1007.89
2022-08-26T08:28:20.181Z,1007.88
2022-08-26T08:29:20.201Z,1007.86
2022-08-26T08:30:23.016Z,1007.86
2022-08-26T08:31:38.748Z,1007.89
2022-08-26T08:32:20.166Z,1007.83
2022-08-26T08:33:20.125Z,1007.86
2022-08-26T08:34:21.540Z,1007.83
2022-08-26T08:35:20.141Z,1007.81
2022-08-26T08:36:20.553Z,1007.80
2022-08-26T08:37:20.105Z,1007.84
2022-08-26T08:38:41.069Z,1007.84
2022-08-26T08:39:20.061Z,1007.83
2022-08-26T08:40:22.283Z,1007.81
2022-08-26T08:41:20.133Z,1007.84
2022-08-26T08:42:20.113Z,1007.84
2022-08-26T08:43:20.005Z,1007.84
2022-08-26T08:44:20.146Z,1007.86
2022-08-26T08:45:21.619Z,1007.75
2022-08-26T08:46:20.166Z,1007.82
2022-08-26T08:47:19.963Z,1007.76
2022-08-26T08:48:19.927Z,1007.78
2022-08-26T08:49:19.956Z,1007.79
2022-08-26T08:50:19.929Z,1007.76
2022-08-26T08:51:19.870Z,1007.70
2022-08-26T08:52:19.989Z,1007.73
2022-08-26T08:53:19.934Z,1007.86
2022-08-26T08:54:19.904Z,1007.85
2022-08-26T08:55:19.850Z,1007.80
2022-08-26T08:56:19.831Z,1007.80
2022-08-26T08:57:19.810Z,1007.79
2022-08-26T08:58:19.805Z,1007.80
2022-08-26T08:59:19.791Z,1007.83
2022-08-26T09:00:19.799Z,1007.81
2022-08-26T09:01:19.870Z,1007.81
2022-08-26T09:02:19.804Z,1007.81
2022-08-26T09:03:19.757Z,1007.84
2022-08-26T09:04:19.749Z,1007.85
2022-08-26T09:05:19.723Z,1007.89
2022-08-26T09:06:19.719Z,1007.92
2022-08-26T09:07:19.724Z,1007.91
2022-08-26T09:08:19.911Z,1007.92
2022-08-26T09:09:19.678Z,1007.91
2022-08-26T09:10:19.727Z,1007.93
2022-08-26T09:11:19.594Z,1007.90
2022-08-26T09:12:19.625Z,1007.88
2022-08-26T09:13:25.267Z,1007.89
2022-08-26T09:14:19.812Z,1007.85
2022-08-26T09:15:19.633Z,1007.83
2022-08-26T09:16:20.321Z,1007.87
2022-08-26T09:17:19.550Z,1007.85
2022-08-26T09:18:19.538Z,1007.85
2022-08-26T09:19:19.509Z,1007.84
2022-08-26T09:20:19.520Z,1007.82
2022-08-26T09:21:19.485Z,1007.84
2022-08-26T09:22:19.553Z,1007.83
2022-08-26T09:23:19.450Z,1007.84
2022-08-26T09:24:19.438Z,1007.82
2022-08-26T09:25:19.456Z,1007.88
2022-08-26T09:26:21.467Z,1007.88
2022-08-26T09:27:19.398Z,1007.90
2022-08-26T09:28:19.395Z,1007.91
2022-08-26T09:30:18.377Z,1007.94
2022-08-26T09:31:19.467Z,1007.95
2022-08-26T09:32:19.353Z,1007.98
2022-08-26T09:33:19.316Z,1008.05
2022-08-26T09:34:19.324Z,1008.08
2022-08-26T09:35:19.385Z,1008.07
2022-08-26T09:36:19.311Z,1008.08
2022-08-26T09:37:19.274Z,1008.07
2022-08-26T09:38:19.283Z,1008.06
2022-08-26T09:39:19.281Z,1008.04
2022-08-26T09:40:19.339Z,1008.03
2022-08-26T09:41:19.237Z,1008.05
2022-08-26T09:42:19.210Z,1008.03
2022-08-26T09:43:22.386Z,1008.03
2022-08-26T09:44:19.214Z,1008.02
2022-08-26T09:45:19.177Z,1008.03
2022-08-26T09:46:19.232Z,1008.03
2022-08-26T09:47:19.150Z,1008.01
2022-08-26T09:48:19.158Z,1008.02
2022-08-26T09:49:19.119Z,1007.99
2022-08-26T09:50:19.146Z,1007.93
2022-08-26T09:51:19.093Z,1007.95
2022-08-26T09:52:19.091Z,1007.97
2022-08-26T09:53:21.027Z,1007.95
2022-08-26T09:54:20.641Z,1007.99
2022-08-26T09:55:19.071Z,1007.96
2022-08-26T09:56:19.018Z,1007.98
2022-08-26T09:57:19.037Z,1007.99
2022-08-26T09:58:20.935Z,1007.96
2022-08-26T09:59:19.016Z,1007.98
2022-08-26T10:00:19.004Z,1007.95
2022-08-26T10:01:19.435Z,1007.97
2022-08-26T10:02:18.992Z,1007.96
2022-08-26T10:03:18.991Z,1007.94
2022-08-26T10:04:18.984Z,1007.95
2022-08-26T10:05:18.947Z,1007.93
2022-08-26T10:06:21.170Z,1007.95
2022-08-26T10:07:18.896Z,1007.93
2022-08-26T10:08:18.870Z,1007.97
2022-08-26T10:09:18.908Z,1007.94
2022-08-26T10:10:18.894Z,1007.93
2022-08-26T10:11:18.825Z,1007.92
2022-08-26T10:12:18.811Z,1007.91
2022-08-26T10:13:18.808Z,1007.89
2022-08-26T10:14:18.826Z,1007.88
2022-08-26T10:15:18.816Z,1007.86
2022-08-26T10:16:18.833Z,1007.85
2022-08-26T10:17:18.790Z,1007.84
2022-08-26T10:18:18.736Z,1007.85
2022-08-26T10:19:18.705Z,1007.84
2022-08-26T10:20:22.927Z,1007.87
2022-08-26T10:21:18.695Z,1007.86
2022-08-26T10:22:18.676Z,1007.82
2022-08-26T10:23:18.751Z,1007.78
2022-08-26T10:24:18.657Z,1007.82
2022-08-26T10:25:18.759Z,1007.77
2022-08-26T10:26:18.621Z,1007.77
2022-08-26T10:27:18.675Z,1007.79
2022-08-26T10:28:18.623Z,1007.75
2022-08-26T10:29:18.621Z,1007.76
2022-08-26T10:30:18.994Z,1007.73
2022-08-26T10:31:19.994Z,1007.77
2022-08-26T10:32:18.682Z,1007.75
2022-08-26T10:33:18.531Z,1007.75
2022-08-26T10:34:18.548Z,1007.72
2022-08-26T10:35:18.543Z,1007.71
2022-08-26T10:36:20.346Z,1007.70
2022-08-26T10:37:18.524Z,1007.75
2022-08-26T10:38:18.462Z,1007.69
2022-08-26T10:39:18.461Z,1007.75
2022-08-26T10:40:18.484Z,1007.73
2022-08-26T10:41:18.421Z,1007.75
2022-08-26T10:42:18.477Z,1007.79
2022-08-26T10:43:18.406Z,1007.75
2022-08-26T10:44:18.542Z,1007.72
2022-08-26T10:45:18.422Z,1007.74
2022-08-26T10:46:18.435Z,1007.72
2022-08-26T10:47:18.461Z,1007.71
2022-08-26T10:48:18.363Z,1007.69
2022-08-26T10:49:18.367Z,1007.70
2022-08-26T10:50:18.920Z,1007.79
2022-08-26T10:51:18.301Z,1007.74
2022-08-26T10:52:18.307Z,1007.67
2022-08-26T10:53:18.314Z,1007.70
2022-08-26T10:54:18.499Z,1007.69
2022-08-26T10:55:18.287Z,1007.69
2022-08-26T10:56:19.084Z,1007.62
2022-08-26T10:57:18.216Z,1007.66
2022-08-26T10:58:26.439Z,1007.68
2022-08-26T10:59:18.247Z,1007.62
2022-08-26T11:00:18.171Z,1007.61
2022-08-26T11:01:22.852Z,1007.61
2022-08-26T11:02:22.773Z,1007.62
2022-08-26T11:03:21.934Z,1007.62
2022-08-26T11:04:18.212Z,1007.63
2022-08-26T11:05:18.105Z,1007.55
2022-08-26T11:06:18.115Z,1007.56
2022-08-26T11:07:18.082Z,1007.58
2022-08-26T11:08:18.102Z,1007.56
2022-08-26T11:09:18.081Z,1007.54
2022-08-26T11:10:18.087Z,1007.57
2022-08-26T11:11:18.095Z,1007.61
2022-08-26T11:12:18.114Z,1007.59
2022-08-26T11:13:18.102Z,1007.60
2022-08-26T11:14:17.996Z,1007.58
2022-08-26T11:15:17.994Z,1007.56
2022-08-26T11:16:17.994Z,1007.62
2022-08-26T11:17:17.945Z,1007.59
2022-08-26T11:18:18.021Z,1007.61
2022-08-26T11:19:17.932Z,1007.62
2022-08-26T11:20:17.921Z,1007.62
2022-08-26T11:21:18.100Z,1007.57
2022-08-26T11:22:17.909Z,1007.62
2022-08-26T11:23:17.905Z,1007.63
2022-08-26T11:24:18.027Z,1007.59
2022-08-26T11:25:19.569Z,1007.59
2022-08-26T11:26:38.689Z,1007.58
2022-08-26T11:27:17.851Z,1007.54
2022-08-26T11:28:17.843Z,1007.58
2022-08-26T11:29:17.840Z,1007.58
2022-08-26T11:30:18.298Z,1007.60
2022-08-26T11:31:17.837Z,1007.72
2022-08-26T11:32:17.828Z,1007.62
2022-08-26T11:33:17.813Z,1007.65
2022-08-26T11:34:17.735Z,1007.63
2022-08-26T11:35:17.866Z,1007.64
2022-08-26T11:36:17.701Z,1007.61
2022-08-26T11:37:17.739Z,1007.62
2022-08-26T11:38:20.748Z,1007.64
2022-08-26T11:39:19.468Z,1007.64
2022-08-26T11:40:17.755Z,1007.66
2022-08-26T11:41:17.863Z,1007.65
2022-08-26T11:42:20.087Z,1007.61
2022-08-26T11:43:17.619Z,1007.64
2022-08-26T11:44:17.587Z,1007.65
2022-08-26T11:45:17.602Z,1007.64
2022-08-26T11:46:17.662Z,1007.60
2022-08-26T11:47:17.591Z,1007.56
2022-08-26T11:48:17.549Z,1007.56
2022-08-26T11:49:17.556Z,1007.54
2022-08-26T11:50:17.527Z,1007.58
2022-08-26T11:51:17.505Z,1007.55
2022-08-26T11:52:17.639Z,1007.56
2022-08-26T11:53:17.968Z,1007.54
2022-08-26T11:54:31.864Z,1007.51
2022-08-26T11:55:17.594Z,1007.52
2022-08-26T11:56:18.022Z,1007.48
2022-08-26T11:57:17.428Z,1007.49
2022-08-26T11:58:17.415Z,1007.48
2022-08-26T11:59:17.401Z,1007.49
2022-08-26T12:00:22.231Z,1007.51
2022-08-26T12:01:17.378Z,1007.49
2022-08-26T12:02:17.838Z,1007.51
2022-08-26T12:03:17.435Z,1007.49
2022-08-26T12:04:17.525Z,1007.44
2022-08-26T12:05:17.392Z,1007.45
2022-08-26T12:06:17.417Z,1007.44
2022-08-26T12:07:18.546Z,1007.47
2022-08-26T12:08:17.283Z,1007.46
2022-08-26T12:09:17.298Z,1007.42
2022-08-26T12:10:17.270Z,1007.43
2022-08-26T12:11:17.258Z,1007.41
2022-08-26T12:12:17.240Z,1007.47
2022-08-26T12:13:17.222Z,1007.43
2022-08-26T12:14:17.219Z,1007.46
2022-08-26T12:15:17.197Z,1007.43
2022-08-26T12:16:17.226Z,1007.42
2022-08-26T12:17:17.157Z,1007.46
2022-08-26T12:18:17.322Z,1007.45
2022-08-26T12:19:17.139Z,1007.41
2022-08-26T12:20:17.141Z,1007.41
2022-08-26T12:21:17.122Z,1007.42
2022-08-26T12:22:17.112Z,1007.39
2022-08-26T12:23:17.087Z,1007.40
2022-08-26T12:24:17.099Z,1007.39
2022-08-26T12:25:17.121Z,1007.34
2022-08-26T12:26:17.026Z,1007.34
2022-08-26T12:27:17.823Z,1007.37
2022-08-26T12:28:17.562Z,1007.38
2022-08-26T12:29:20.208Z,1007.37
2022-08-26T12:30:18.033Z,1007.33
2022-08-26T12:31:17.546Z,1007.32
2022-08-26T12:32:16.964Z,1007.32
2022-08-26T12:33:23.032Z,1007.29
2022-08-26T12:34:17.991Z,1007.25
2022-08-26T12:35:16.922Z,1007.28
2022-08-26T12:36:16.912Z,1007.26
2022-08-26T12:37:16.937Z,1007.25
2022-08-26T12:38:16.952Z,1007.25
2022-08-26T12:39:16.903Z,1007.25
2022-08-26T12:40:16.962Z,1007.26
2022-08-26T12:41:17.018Z,1007.27
2022-08-26T12:42:16.871Z,1007.28
2022-08-26T12:43:16.896Z,1007.28
2022-08-26T12:44:16.925Z,1007.29
2022-08-26T12:45:16.997Z,1007.29
2022-08-26T12:46:16.768Z,1007.22
2022-08-26T12:47:16.817Z,1007.27
2022-08-26T12:48:16.778Z,1007.31
2022-08-26T12:49:16.756Z,1007.23
2022-08-26T12:50:16.777Z,1007.28
2022-08-26T12:51:16.728Z,1007.24
2022-08-26T12:52:16.719Z,1007.19
2022-08-26T12:53:16.686Z,1007.21
2022-08-26T12:54:16.674Z,1007.18
2022-08-26T12:55:16.656Z,1007.17
2022-08-26T12:56:16.635Z,1007.12
2022-08-26T12:57:17.828Z,1007.09
2022-08-26T12:58:16.668Z,1007.13
2022-08-26T12:59:16.708Z,1007.12
2022-08-26T13:00:16.661Z,1007.08
2022-08-26T13:01:16.705Z,1007.11
2022-08-26T13:02:16.720Z,1007.08
2022-08-26T13:03:16.556Z,1007.06
2022-08-26T13:04:16.562Z,1007.06
2022-08-26T13:05:16.532Z,1007.07
2022-08-26T13:06:16.544Z,1007.09
2022-08-26T13:07:16.510Z,1007.05
2022-08-26T13:08:16.535Z,1007.02
2022-08-26T13:09:16.546Z,1007.03
2022-08-26T13:10:16.511Z,1007.01
2022-08-26T13:11:16.532Z,1006.97